Time;durP1;ratioP1;P1;durP2;ratioP2;P2;SDS_P1;SDS_P2;PMS_P1;PMS_P2;Temp;Humidity;BMP_temperature;BMP_pressure;BME280_temperature;BME280_humidity;BME280_pressure;Samples;Min_cycle;Max_cycle;Signal;HPM_P1;HPM_P2
2021/09/30 00:00:30;;;;;;;14.18;6.55;;;384.20;2329.60;;;;;;4864797;29;20438;-76
2021/09/30 00:02:56;;;;;;;12.48;5.68;;;384.30;2329.60;;;;;;4881096;29;20505;-76
2021/09/30 00:05:22;;;;;;;10.07;6.40;;;384.40;2329.60;;;;;;4864119;29;20032;-75
2021/09/30 00:07:47;;;;;;;11.63;6.03;;;384.40;2329.60;;;;;;4881296;29;20053;-76
2021/09/30 00:10:18;;;;;;;12.38;5.47;;;384.40;2329.60;;;;;;4864209;29;20029;-76
2021/09/30 00:12:50;;;;;;;18.17;6.10;;;384.60;2329.60;;;;;;4861839;29;20052;-77
2021/09/30 00:34:56;;;;;;;11.10;5.32;;;384.50;2329.60;;;;;;4777686;30;20441;-76
2021/09/30 00:40:38;;;;;;;9.45;5.10;;;384.50;2329.60;;;;;;4743515;29;20036;-76
2021/09/30 02:31:28;;;;;;;14.45;6.95;;;384.30;2329.60;;;;;;4772400;30;20048;-76
2021/09/30 02:58:47;;;;;;;16.08;7.00;;;384.60;2329.60;;;;;;4813265;29;20588;-76
2021/09/30 03:01:21;;;;;;;11.23;7.13;;;384.70;2329.60;;;;;;4833070;29;20041;-76
2021/09/30 03:03:47;;;;;;;13.63;7.03;;;384.80;2329.60;;;;;;4871776;29;20032;-76
2021/09/30 03:06:14;;;;;;;13.40;6.70;;;384.80;2329.60;;;;;;4884376;29;20017;-77
2021/09/30 03:08:46;;;;;;;11.15;6.03;;;384.60;2329.60;;;;;;4887268;29;20027;-76
2021/09/30 03:11:15;;;;;;;9.85;5.85;;;384.80;2329.60;;;;;;4867107;29;20025;-76
2021/09/30 03:13:43;;;;;;;9.35;6.32;;;384.80;2329.60;;;;;;4866909;29;20152;-76
2021/09/30 03:24:06;;;;;;;9.97;6.67;;;384.70;2329.60;;;;;;4868214;29;20141;-77
2021/09/30 03:26:32;;;;;;;11.27;6.13;;;384.80;2329.60;;;;;;4863835;29;20073;-78
2021/09/30 03:29:00;;;;;;;11.25;6.18;;;384.80;2329.60;;;;;;4868882;29;20100;-78
2021/09/30 03:31:27;;;;;;;12.52;6.47;;;384.80;2329.60;;;;;;4860858;29;20531;-77
2021/09/30 03:33:53;;;;;;;11.50;6.38;;;384.90;2329.60;;;;;;4866130;29;20026;-77
2021/09/30 03:36:19;;;;;;;11.15;6.63;;;384.80;2329.60;;;;;;4867742;29;20044;-76
2021/09/30 03:38:45;;;;;;;12.85;7.10;;;384.90;2329.60;;;;;;4869100;29;20038;-76
2021/09/30 03:41:11;;;;;;;14.23;6.43;;;384.90;2329.60;;;;;;4867151;29;20044;-77
2021/09/30 03:43:37;;;;;;;11.90;6.75;;;384.90;2329.60;;;;;;4868081;29;20512;-78
2021/09/30 03:46:03;;;;;;;11.27;6.70;;;384.80;2329.60;;;;;;4868705;29;20037;-76
2021/09/30 03:48:28;;;;;;;11.45;6.60;;;384.90;2329.60;;;;;;4865710;29;20037;-77
2021/09/30 04:01:28;;;;;;;9.65;6.53;;;409.80;2355.20;;;;;;4868418;29;20070;-76
2021/09/30 04:03:54;;;;;;;14.52;6.82;;;409.80;2355.20;;;;;;4867256;29;20037;-76
2021/09/30 04:06:20;;;;;;;9.52;5.97;;;409.80;2355.20;;;;;;4866189;29;20082;-77
2021/09/30 04:08:47;;;;;;;9.25;6.07;;;409.80;2355.20;;;;;;4866010;29;20033;-77
2021/09/30 04:11:13;;;;;;;10.15;6.13;;;409.90;2355.20;;;;;;4867916;29;20113;-78
2021/09/30 04:13:39;;;;;;;12.25;6.90;;;409.90;2355.20;;;;;;4866545;29;20046;-76
2021/09/30 04:16:05;;;;;;;9.90;6.55;;;409.90;2355.20;;;;;;4866832;29;20488;-76
2021/09/30 04:18:31;;;;;;;13.00;7.72;;;409.80;2355.20;;;;;;4866790;29;20116;-76
2021/09/30 04:20:57;;;;;;;12.48;7.18;;;409.80;2355.20;;;;;;4867559;29;20521;-78
2021/09/30 04:23:23;;;;;;;8.68;6.05;;;409.80;2355.20;;;;;;4867109;29;20382;-77
2021/09/30 04:25:49;;;;;;;11.05;7.18;;;409.80;2355.20;;;;;;4865936;29;20058;-77
2021/09/30 04:28:15;;;;;;;8.98;6.07;;;409.90;2355.20;;;;;;4867164;29;20032;-77
2021/09/30 04:30:42;;;;;;;10.88;6.25;;;409.80;2355.20;;;;;;4858998;29;20430;-77
2021/09/30 04:33:08;;;;;;;12.13;6.30;;;409.80;2355.20;;;;;;4861376;29;20112;-77
2021/09/30 04:35:34;;;;;;;12.77;6.40;;;409.80;2355.20;;;;;;4862200;29;20173;-77
2021/09/30 04:37:59;;;;;;;11.13;6.30;;;409.80;2355.20;;;;;;4864828;29;20033;-77
2021/09/30 04:40:25;;;;;;;18.50;7.57;;;409.80;2355.20;;;;;;4867040;29;20025;-78
2021/09/30 04:42:51;;;;;;;13.10;7.10;;;409.90;2355.20;;;;;;4870875;29;20060;-77
2021/09/30 04:45:17;;;;;;;9.73;6.47;;;409.90;2355.20;;;;;;4870492;29;20065;-78
2021/09/30 04:47:42;;;;;;;15.38;7.35;;;409.80;2355.20;;;;;;4871489;29;20028;-78
2021/09/30 04:50:10;;;;;;;11.10;6.40;;;409.70;2355.20;;;;;;4860972;29;20034;-76
2021/09/30 04:52:36;;;;;;;9.93;6.15;;;409.70;2355.20;;;;;;4867969;29;20033;-77
2021/09/30 04:55:02;;;;;;;13.48;6.20;;;409.60;2355.20;;;;;;4868598;29;20025;-76
2021/09/30 04:57:28;;;;;;;13.98;6.70;;;409.60;2355.20;;;;;;4870161;29;20093;-76
2021/09/30 04:59:54;;;;;;;15.00;7.28;;;409.60;2355.20;;;;;;4868511;29;20048;-78
2021/09/30 05:02:19;;;;;;;13.93;6.68;;;409.70;2355.20;;;;;;4870384;29;20036;-77
2021/09/30 05:04:45;;;;;;;13.55;6.60;;;409.60;2355.20;;;;;;4870839;29;20026;-77
2021/09/30 05:07:11;;;;;;;13.25;6.47;;;409.60;2355.20;;;;;;4871386;29;20135;-77
2021/09/30 05:09:38;;;;;;;12.00;6.45;;;384.90;2329.60;;;;;;4868748;29;20041;-77
2021/09/30 05:12:04;;;;;;;13.70;6.75;;;384.90;2329.60;;;;;;4869592;29;20040;-78
2021/09/30 05:14:30;;;;;;;19.73;7.68;;;409.80;2355.20;;;;;;4887432;29;20139;-77
2021/09/30 05:16:55;;;;;;;16.80;7.55;;;384.90;2329.60;;;;;;4890093;29;20538;-77
2021/09/30 05:19:21;;;;;;;12.05;7.30;;;384.90;2329.60;;;;;;4871811;29;20064;-78
2021/09/30 05:21:47;;;;;;;14.32;6.43;;;384.90;2329.60;;;;;;4888290;29;20047;-76
2021/09/30 05:24:13;;;;;;;10.13;6.88;;;384.90;2329.60;;;;;;4890261;29;20040;-78
2021/09/30 05:26:39;;;;;;;12.18;6.75;;;409.60;2355.20;;;;;;4888537;29;20013;-77
2021/09/30 05:29:06;;;;;;;11.75;6.93;;;409.70;2355.20;;;;;;4872657;29;20028;-78
2021/09/30 05:31:32;;;;;;;11.10;6.13;;;409.70;2355.20;;;;;;4872877;29;20111;-76
2021/09/30 05:33:58;;;;;;;13.52;6.57;;;409.80;2355.20;;;;;;4868862;29;20037;-77
2021/09/30 05:36:24;;;;;;;13.25;7.25;;;409.80;2355.20;;;;;;4872159;29;20485;-77
2021/09/30 05:38:51;;;;;;;13.68;6.85;;;409.90;2355.20;;;;;;4872814;29;20069;-76
2021/09/30 05:41:17;;;;;;;14.70;6.97;;;409.90;2355.20;;;;;;4879487;29;20071;-76
2021/09/30 05:43:49;;;;;;;10.73;6.93;;;410.00;2355.20;;;;;;4879796;29;20040;-77
2021/09/30 05:46:18;;;;;;;11.77;6.65;;;410.00;2355.20;;;;;;4862368;29;20037;-77
2021/09/30 05:48:43;;;;;;;13.15;7.38;;;410.10;2355.20;;;;;;4885051;29;20025;-75
2021/09/30 05:51:10;;;;;;;13.02;6.63;;;410.00;2355.20;;;;;;4889059;29;20032;-75
2021/09/30 05:53:36;;;;;;;12.65;6.88;;;410.10;2355.20;;;;;;4872563;29;20030;-76
2021/09/30 05:56:02;;;;;;;13.20;7.88;;;410.20;2355.20;;;;;;4887221;29;20025;-76
2021/09/30 05:58:28;;;;;;;10.90;6.28;;;410.20;2355.20;;;;;;4879152;29;20029;-75
2021/09/30 06:14:13;;;;;;;12.43;6.40;;;410.20;2355.20;;;;;;4878878;29;20112;-76
2021/09/30 06:16:45;;;;;;;18.02;6.93;;;410.20;2355.20;;;;;;4862165;29;20040;-75
2021/09/30 06:19:13;;;;;;;10.98;6.13;;;410.30;2355.20;;;;;;4862136;29;20044;-77
2021/09/30 06:21:39;;;;;;;11.60;6.28;;;410.30;2355.20;;;;;;4884951;29;20077;-77
2021/09/30 06:24:07;;;;;;;10.77;6.80;;;410.30;2355.20;;;;;;4888014;29;20032;-77
2021/09/30 06:26:33;;;;;;;8.85;6.20;;;410.30;2355.20;;;;;;4864469;29;20736;-75
2021/09/30 06:28:59;;;;;;;9.30;5.40;;;435.60;2355.20;;;;;;4862221;29;20037;-76
2021/09/30 06:31:25;;;;;;;9.60;5.47;;;410.30;2355.20;;;;;;4862028;29;20029;-77
2021/09/30 06:33:52;;;;;;;15.40;6.53;;;410.40;2355.20;;;;;;4878891;29;20545;-75
2021/09/30 06:36:18;;;;;;;11.63;5.90;;;410.50;2355.20;;;;;;4861653;29;20059;-76
2021/09/30 06:38:44;;;;;;;12.93;6.75;;;410.50;2355.20;;;;;;4878410;29;20033;-76
2021/09/30 06:41:09;;;;;;;10.77;6.20;;;435.20;2355.20;;;;;;4878654;29;20085;-75
2021/09/30 06:43:35;;;;;;;17.67;5.80;;;435.20;2355.20;;;;;;4878519;29;20032;-76
2021/09/30 06:46:01;;;;;;;14.77;6.82;;;435.30;2355.20;;;;;;4861982;29;20112;-76
2021/09/30 06:48:27;;;;;;;16.65;6.85;;;435.30;2355.20;;;;;;4878466;29;20401;-75
2021/09/30 06:50:53;;;;;;;19.60;6.20;;;435.30;2355.20;;;;;;4878581;29;20378;-76
2021/09/30 06:53:19;;;;;;;11.00;6.10;;;435.30;2355.20;;;;;;4861674;29;20029;-76
2021/09/30 06:55:46;;;;;;;12.30;6.22;;;435.30;2355.20;;;;;;4878404;29;20032;-75
2021/09/30 06:58:11;;;;;;;10.70;6.35;;;435.30;2355.20;;;;;;4878109;29;20486;-76
2021/09/30 07:00:41;;;;;;;14.68;6.03;;;435.30;2355.20;;;;;;4877792;29;20111;-76
2021/09/30 07:03:08;;;;;;;8.90;5.88;;;435.30;2355.20;;;;;;4861639;29;20601;-74
2021/09/30 07:05:34;;;;;;;10.75;5.55;;;435.30;2355.20;;;;;;4861494;29;20112;-76
2021/09/30 07:08:01;;;;;;;10.25;5.85;;;435.40;2355.20;;;;;;4861464;29;20025;-75
2021/09/30 07:10:27;;;;;;;17.42;6.72;;;435.40;2355.20;;;;;;4878180;29;20029;-75
2021/09/30 07:12:54;;;;;;;13.43;6.13;;;435.40;2355.20;;;;;;4877900;29;20049;-76
2021/09/30 07:15:19;;;;;;;10.88;5.78;;;435.30;2355.20;;;;;;4861510;29;20037;-76
2021/09/30 07:17:45;;;;;;;12.70;5.78;;;435.50;2355.20;;;;;;4886106;29;20085;-76
2021/09/30 07:20:11;;;;;;;14.73;6.22;;;435.50;2355.20;;;;;;4887901;29;20116;-77
2021/09/30 07:22:37;;;;;;;15.80;6.30;;;435.60;2355.20;;;;;;4878074;29;20031;-76
2021/09/30 07:25:04;;;;;;;10.73;5.53;;;435.60;2355.20;;;;;;4877824;29;20116;-77
2021/09/30 07:27:30;;;;;;;10.55;5.68;;;435.60;2355.20;;;;;;4861529;29;20516;-77
2021/09/30 07:29:56;;;;;;;10.50;5.97;;;435.70;2355.20;;;;;;4861228;29;20466;-75
2021/09/30 07:32:24;;;;;;;14.82;6.45;;;435.70;2355.20;;;;;;4861443;29;20032;-76
2021/09/30 07:34:50;;;;;;;12.45;5.70;;;435.60;2355.20;;;;;;4861243;29;20029;-75
2021/09/30 07:37:16;;;;;;;10.50;5.05;;;435.60;2355.20;;;;;;4877967;29;20519;-75
2021/09/30 07:39:42;;;;;;;15.77;6.47;;;435.50;2355.20;;;;;;4877889;29;20033;-77
2021/09/30 07:42:08;;;;;;;12.55;5.20;;;435.70;2355.20;;;;;;4877602;29;20036;-77
2021/09/30 07:44:36;;;;;;;11.98;5.63;;;435.80;2355.20;;;;;;4861405;29;20033;-76
2021/09/30 07:47:03;;;;;;;13.77;5.70;;;435.70;2355.20;;;;;;4877759;29;20057;-76
2021/09/30 07:49:29;;;;;;;8.57;5.68;;;435.70;2355.20;;;;;;4877906;29;20025;-76
2021/09/30 07:51:55;;;;;;;21.15;6.00;;;435.70;2355.20;;;;;;4877837;29;20025;-76
2021/09/30 07:54:21;;;;;;;18.15;6.63;;;435.60;2355.20;;;;;;4874393;29;20033;-76
2021/09/30 07:56:46;;;;;;;10.25;5.53;;;435.70;2355.20;;;;;;4860933;29;20018;-75
2021/09/30 07:59:12;;;;;;;20.58;6.03;;;435.60;2355.20;;;;;;4877742;29;20386;-76
2021/09/30 08:01:38;;;;;;;15.07;7.00;;;435.60;2355.20;;;;;;4877564;29;20025;-76
2021/09/30 08:04:04;;;;;;;16.95;6.45;;;435.60;2355.20;;;;;;4877714;29;20033;-77
2021/09/30 08:06:30;;;;;;;10.27;6.45;;;435.80;2355.20;;;;;;4877684;29;20021;-76
2021/09/30 08:08:56;;;;;;;13.32;6.65;;;435.90;2355.20;;;;;;4877138;29;20036;-76
2021/09/30 08:11:23;;;;;;;17.88;5.85;;;435.90;2355.20;;;;;;4863420;29;20386;-77
2021/09/30 08:13:51;;;;;;;18.77;6.60;;;435.90;2355.20;;;;;;4883380;29;20429;-77
2021/09/30 08:16:19;;;;;;;12.15;6.15;;;435.90;2355.20;;;;;;4891723;29;20017;-77
2021/09/30 08:18:46;;;;;;;12.98;6.07;;;435.90;2355.20;;;;;;4890341;29;20457;-76
2021/09/30 08:21:13;;;;;;;21.40;6.40;;;435.90;2355.20;;;;;;4866006;29;20092;-77
2021/09/30 08:23:40;;;;;;;29.15;7.60;;;435.90;2355.20;;;;;;4863786;29;20033;-76
2021/09/30 08:26:06;;;;;;;12.48;5.00;;;435.90;2355.20;;;;;;4864078;29;20045;-76
2021/09/30 08:28:34;;;;;;;13.38;6.13;;;435.90;2355.20;;;;;;4888634;29;20025;-76
2021/09/30 08:31:01;;;;;;;24.17;7.38;;;435.90;2355.20;;;;;;4864318;29;20412;-76
2021/09/30 08:33:26;;;;;;;15.65;7.93;;;435.80;2355.20;;;;;;4864258;29;20103;-77
2021/09/30 08:35:52;;;;;;;19.48;6.97;;;435.90;2355.20;;;;;;4864013;29;20025;-76
2021/09/30 08:38:18;;;;;;;25.48;8.38;;;435.80;2355.20;;;;;;4867776;29;20457;-75
2021/09/30 08:40:46;;;;;;;17.73;8.55;;;435.80;2355.20;;;;;;4891698;29;20064;-76
2021/09/30 08:43:12;;;;;;;18.25;8.15;;;435.80;2355.20;;;;;;4888664;29;20092;-76
2021/09/30 08:45:37;;;;;;;19.02;8.95;;;435.80;2355.20;;;;;;4871950;29;20470;-77
2021/09/30 08:48:05;;;;;;;22.20;9.65;;;435.80;2355.20;;;;;;4873838;29;20057;-76
2021/09/30 08:50:38;;;;;;;19.58;8.70;;;435.80;2355.20;;;;;;4885216;29;20013;-75
2021/09/30 08:53:06;;;;;;;17.30;7.55;;;435.80;2355.20;;;;;;4880502;29;20051;-76
2021/09/30 08:55:32;;;;;;;16.08;9.40;;;435.80;2355.20;;;;;;4880481;29;20175;-77
2021/09/30 08:58:02;;;;;;;19.92;12.13;;;435.80;2355.20;;;;;;4880304;29;20111;-76
2021/09/30 09:00:28;;;;;;;24.60;15.25;;;435.80;2355.20;;;;;;4880204;29;20198;-78
2021/09/30 09:02:54;;;;;;;31.27;15.85;;;435.70;2355.20;;;;;;4880222;29;20077;-77
2021/09/30 09:05:21;;;;;;;37.45;19.75;;;435.90;2355.20;;;;;;4863661;29;20048;-78
2021/09/30 09:07:55;;;;;;;44.28;23.63;;;435.90;2355.20;;;;;;4863355;29;20104;-77
2021/09/30 09:10:22;;;;;;;46.55;25.88;;;436.10;2355.20;;;;;;4873241;29;20029;-78
2021/09/30 09:13:13;;;;;;;49.60;26.45;;;436.10;2355.20;;;;;;4890733;29;20052;-77
2021/09/30 09:15:43;;;;;;;43.13;25.05;;;460.80;2380.80;;;;;;4863372;29;20033;-77
2021/09/30 09:18:13;;;;;;;48.30;25.60;;;436.10;2355.20;;;;;;4879803;29;20029;-76
2021/09/30 09:20:40;;;;;;;41.70;26.27;;;460.80;2380.80;;;;;;4880204;29;20116;-77
2021/09/30 09:23:08;;;;;;;46.80;26.00;;;460.80;2380.80;;;;;;4879069;29;20025;-75
2021/09/30 09:25:34;;;;;;;46.70;26.00;;;460.90;2380.80;;;;;;4864218;29;20029;-75
2021/09/30 09:28:00;;;;;;;54.92;28.95;;;460.90;2380.80;;;;;;4888882;29;20028;-76
2021/09/30 09:30:32;;;;;;;49.05;27.38;;;460.90;2380.80;;;;;;4873185;29;20112;-76
2021/09/30 09:33:04;;;;;;;54.00;30.65;;;461.00;2380.80;;;;;;4884738;29;20045;-76
2021/09/30 09:35:56;;;;;;;52.70;29.17;;;461.10;2380.80;;;;;;4889317;29;20025;-78
2021/09/30 09:38:25;;;;;;;48.53;26.67;;;461.10;2380.80;;;;;;4885526;29;20029;-77
2021/09/30 09:41:12;;;;;;;38.97;24.23;;;461.10;2380.80;;;;;;4871178;29;20028;-77
2021/09/30 09:43:44;;;;;;;38.80;22.20;;;461.10;2380.80;;;;;;4888942;29;20025;-76
2021/09/30 09:46:12;;;;;;;34.95;21.65;;;461.20;2380.80;;;;;;4870292;29;20553;-76
2021/09/30 09:48:38;;;;;;;38.47;24.13;;;461.20;2380.80;;;;;;4887754;29;20477;-75
2021/09/30 09:51:10;;;;;;;39.28;24.63;;;461.20;2380.80;;;;;;4882058;29;20039;-77
2021/09/30 09:53:37;;;;;;;30.63;22.05;;;461.20;2380.80;;;;;;4879800;29;20025;-76
2021/09/30 09:56:18;;;;;;;30.40;17.50;;;461.20;2380.80;;;;;;4879326;29;20029;-77
2021/09/30 09:58:55;;;;;;;33.30;15.10;;;461.30;2380.80;;;;;;4869087;29;20503;-77
2021/09/30 10:01:39;;;;;;;;;;;461.30;2380.80;;;;;;4869765;29;20025;-76
2021/09/30 10:04:06;;;;;;;31.55;15.77;;;461.30;2380.80;;;;;;4887372;29;19911;-77
2021/09/30 10:06:34;;;;;;;24.73;15.18;;;461.30;2380.80;;;;;;4870785;29;20474;-77
2021/09/30 10:09:00;;;;;;;33.83;18.33;;;461.30;2380.80;;;;;;4883788;29;20021;-77
2021/09/30 10:11:27;;;;;;;29.70;13.68;;;461.30;2380.80;;;;;;4862788;29;20056;-77
2021/09/30 10:13:56;;;;;;;25.25;12.93;;;461.40;2380.80;;;;;;4878809;29;20056;-76
2021/09/30 10:16:25;;;;;;;26.20;13.13;;;461.40;2380.80;;;;;;4878973;29;20029;-76
2021/09/30 10:18:56;;;;;;;22.35;14.13;;;461.40;2380.80;;;;;;4878941;29;20029;-77
2021/09/30 10:21:22;;;;;;;26.65;15.32;;;461.30;2380.80;;;;;;4878907;29;20107;-76
2021/09/30 10:23:51;;;;;;;41.15;19.27;;;461.40;2380.80;;;;;;4879249;29;20013;-77
2021/09/30 10:26:23;;;;;;;30.60;15.63;;;461.40;2380.80;;;;;;4862174;29;20036;-77
2021/09/30 10:28:49;;;;;;;33.05;16.48;;;461.40;2380.80;;;;;;4883315;29;20024;-77
2021/09/30 10:31:55;;;;;;;37.05;15.95;;;461.40;2380.80;;;;;;4897453;29;20028;-77
2021/09/30 10:34:29;;;;;;;29.92;14.57;;;461.40;2380.80;;;;;;4788096;29;20051;-77
2021/09/30 10:37:14;;;;;;;27.17;14.27;;;461.40;2380.80;;;;;;4816009;29;20038;-78
2021/09/30 10:39:42;;;;;;;22.45;12.68;;;461.40;2380.80;;;;;;4813640;29;20554;-77
2021/09/30 10:42:28;;;;;;;23.40;14.05;;;461.40;2380.80;;;;;;4805227;29;20484;-77
2021/09/30 10:45:13;;;;;;;30.80;14.63;;;461.40;2380.80;;;;;;4814219;29;20038;-78
2021/09/30 10:47:39;;;;;;;24.63;13.18;;;461.40;2380.80;;;;;;4791480;29;20329;-76
2021/09/30 10:50:05;;;;;;;31.35;15.90;;;461.40;2380.80;;;;;;4811140;29;20030;-77
2021/09/30 10:52:48;;;;;;;38.28;16.63;;;461.50;2380.80;;;;;;4811229;29;20030;-78
2021/09/30 10:55:16;;;;;;;28.35;14.40;;;461.50;2380.80;;;;;;4810933;29;20114;-77
2021/09/30 10:57:43;;;;;;;23.33;15.48;;;461.50;2380.80;;;;;;4811810;29;20041;-78
2021/09/30 11:00:19;;;;;;;26.65;15.48;;;461.50;2380.80;;;;;;4809993;29;20051;-78
2021/09/30 11:03:01;;;;;;;35.03;13.82;;;461.50;2380.80;;;;;;4802910;29;20029;-77
2021/09/30 11:05:35;;;;;;;26.58;12.40;;;461.50;2380.80;;;;;;4784361;29;20030;-77
2021/09/30 11:08:32;;;;;;;23.75;10.32;;;461.40;2380.80;;;;;;4811515;29;20621;-76
2021/09/30 11:13:31;;;;;;;24.38;9.80;;;461.20;2380.80;;;;;;4808111;29;20162;-76
2021/09/30 11:16:00;;;;;;;18.55;8.10;;;461.20;2380.80;;;;;;4810674;29;20042;-77
2021/09/30 11:18:49;;;;;;;26.35;9.15;;;461.20;2380.80;;;;;;4810662;29;20043;-78
2021/09/30 11:21:31;;;;;;;14.90;8.52;;;461.10;2380.80;;;;;;4809752;29;20548;-77
2021/09/30 11:24:00;;;;;;;14.25;7.57;;;461.10;2380.80;;;;;;4810291;29;20095;-78
2021/09/30 11:26:27;;;;;;;16.00;7.40;;;461.00;2380.80;;;;;;4807951;29;20031;-77
2021/09/30 11:28:54;;;;;;;20.88;9.35;;;461.00;2380.80;;;;;;4802597;29;20083;-76
2021/09/30 11:31:24;;;;;;;33.33;13.48;;;461.00;2380.80;;;;;;4807837;29;20066;-77
2021/09/30 11:33:52;;;;;;;96.90;44.35;;;461.00;2380.80;;;;;;4812310;29;20125;-77
2021/09/30 11:36:18;;;;;;;61.50;26.67;;;461.10;2380.80;;;;;;4807629;29;20034;-76
2021/09/30 11:38:45;;;;;;;37.03;18.95;;;460.90;2380.80;;;;;;4811717;29;20566;-77
2021/09/30 11:41:11;;;;;;;31.80;15.63;;;460.90;2380.80;;;;;;4812432;29;20042;-76
2021/09/30 11:43:39;;;;;;;40.75;19.15;;;460.90;2380.80;;;;;;4809747;29;20540;-76
2021/09/30 11:46:28;;;;;;;34.33;16.42;;;460.90;2380.80;;;;;;4808701;29;20026;-77
2021/09/30 11:49:02;;;;;;;28.27;14.07;;;460.90;2380.80;;;;;;4864482;29;20029;-77
2021/09/30 11:51:38;;;;;;;37.03;20.45;;;460.90;2380.80;;;;;;4872860;29;20034;-77
2021/09/30 11:54:05;;;;;;;;;;;460.90;2380.80;;;;;;4871287;29;20029;-78
2021/09/30 11:56:43;;;;;;;24.08;14.23;;;461.00;2380.80;;;;;;4870979;29;19941;-81
2021/09/30 11:59:10;;;;;;;28.58;14.02;;;460.90;2380.80;;;;;;4871113;29;20064;-79
2021/09/30 12:01:48;;;;;;;34.33;19.52;;;460.90;2380.80;;;;;;4867372;29;20029;-80
2021/09/30 12:04:43;;;;;;;34.42;17.20;;;460.90;2380.80;;;;;;4867618;29;20108;-80
2021/09/30 12:07:18;;;;;;;33.75;16.23;;;460.90;2380.80;;;;;;4869393;29;20093;-81
2021/09/30 12:09:44;;;;;;;28.40;12.45;;;460.90;2380.80;;;;;;4870467;29;20056;-77
2021/09/30 12:12:10;;;;;;;32.53;15.82;;;460.80;2380.80;;;;;;4862906;29;20477;-80
2021/09/30 12:14:39;;;;;;;32.13;14.85;;;460.80;2380.80;;;;;;4879858;29;20061;-80
2021/09/30 12:17:12;;;;;;;29.02;16.23;;;436.10;2355.20;;;;;;4881470;29;20029;-76
2021/09/30 12:19:51;;;;;;;28.85;15.77;;;436.00;2355.20;;;;;;4864155;29;20073;-77
2021/09/30 12:22:20;;;;;;;30.70;17.85;;;436.00;2355.20;;;;;;4881404;29;20490;-78
2021/09/30 12:24:59;;;;;;;32.28;17.50;;;435.90;2355.20;;;;;;4864609;29;20033;-79
2021/09/30 12:27:30;;;;;;;31.73;15.05;;;435.90;2355.20;;;;;;4879673;29;20045;-80
2021/09/30 12:30:08;;;;;;;23.33;12.00;;;435.90;2355.20;;;;;;4864315;29;20032;-77
2021/09/30 12:32:36;;;;;;;26.00;13.02;;;435.90;2355.20;;;;;;4886144;29;20041;-79
2021/09/30 12:35:06;;;;;;;31.00;13.95;;;435.90;2355.20;;;;;;4874425;29;20036;-81
2021/09/30 12:37:33;;;;;;;22.58;12.25;;;435.90;2355.20;;;;;;4891309;29;20045;-77
2021/09/30 12:40:06;;;;;;;18.52;12.43;;;435.80;2355.20;;;;;;4885348;29;20045;-78
2021/09/30 12:42:33;;;;;;;36.17;20.80;;;435.80;2355.20;;;;;;4872370;29;20033;-77
2021/09/30 12:44:59;;;;;;;45.67;20.92;;;435.80;2355.20;;;;;;4890986;29;20032;-77
2021/09/30 12:47:40;;;;;;;36.13;21.83;;;435.80;2355.20;;;;;;4873084;29;20040;-79
2021/09/30 12:50:11;;;;;;;32.92;18.85;;;435.70;2355.20;;;;;;4888502;29;20021;-77
2021/09/30 12:52:39;;;;;;;25.23;15.38;;;435.70;2355.20;;;;;;4869027;29;20077;-79
2021/09/30 12:55:27;;;;;;;28.10;16.83;;;435.60;2355.20;;;;;;4890227;29;20025;-81
2021/09/30 12:57:53;;;;;;;27.95;17.98;;;435.60;2355.20;;;;;;4888130;29;20021;-78
2021/09/30 13:00:21;;;;;;;34.10;16.40;;;435.60;2355.20;;;;;;4868530;29;20393;-78
2021/09/30 13:02:48;;;;;;;21.75;15.15;;;435.70;2355.20;;;;;;4880287;29;20029;-80
2021/09/30 13:05:15;;;;;;;33.75;21.35;;;435.70;2355.20;;;;;;4863787;29;20033;-79
2021/09/30 13:08:01;;;;;;;29.75;18.33;;;435.70;2355.20;;;;;;4881011;29;20036;-78
2021/09/30 13:10:30;;;;;;;29.52;18.88;;;435.70;2355.20;;;;;;4889891;29;20746;-78
2021/09/30 13:13:12;;;;;;;28.92;13.80;;;435.70;2355.20;;;;;;4888710;29;20056;-77
2021/09/30 13:15:44;;;;;;;21.63;13.07;;;435.60;2355.20;;;;;;4889078;29;20040;-77
2021/09/30 13:18:14;;;;;;;20.85;13.10;;;435.70;2355.20;;;;;;4888592;29;20040;-78
2021/09/30 13:20:42;;;;;;;30.33;14.23;;;435.70;2355.20;;;;;;4869218;29;20048;-77
2021/09/30 13:23:10;;;;;;;31.67;19.38;;;435.80;2355.20;;;;;;4870802;29;20045;-77
2021/09/30 13:25:37;;;;;;;32.83;19.38;;;435.80;2355.20;;;;;;4886318;29;20021;-81
2021/09/30 13:28:03;;;;;;;31.10;18.60;;;460.80;2380.80;;;;;;4876984;29;20029;-80
2021/09/30 13:30:33;;;;;;;26.52;15.32;;;435.80;2355.20;;;;;;4863421;29;20115;-79
2021/09/30 13:33:01;;;;;;;23.02;14.77;;;435.80;2355.20;;;;;;4880341;29;20028;-78
2021/09/30 13:35:30;;;;;;;21.98;13.98;;;435.90;2355.20;;;;;;4879560;29;20020;-78
2021/09/30 13:37:57;;;;;;;19.92;12.45;;;435.90;2355.20;;;;;;4889843;29;20028;-77
2021/09/30 13:40:24;;;;;;;19.65;12.23;;;435.90;2355.20;;;;;;4890165;29;20036;-80
2021/09/30 13:42:50;;;;;;;21.08;12.27;;;435.90;2355.20;;;;;;4872348;29;20053;-79
2021/09/30 13:45:21;;;;;;;20.67;11.23;;;435.90;2355.20;;;;;;4886926;29;20488;-79
2021/09/30 13:47:47;;;;;;;22.27;11.02;;;435.90;2355.20;;;;;;4888824;29;20056;-78
2021/09/30 13:50:22;;;;;;;17.08;10.25;;;435.90;2355.20;;;;;;4871210;29;20037;-80
2021/09/30 13:52:50;;;;;;;29.42;12.82;;;435.90;2355.20;;;;;;4885707;29;20036;-78
2021/09/30 13:55:17;;;;;;;16.73;11.10;;;435.90;2355.20;;;;;;4878615;29;20033;-80
2021/09/30 13:57:44;;;;;;;22.83;12.20;;;435.90;2355.20;;;;;;4861994;29;20017;-77
2021/09/30 14:00:12;;;;;;;26.30;14.35;;;435.90;2355.20;;;;;;4878364;29;20040;-78
2021/09/30 14:02:39;;;;;;;25.20;18.13;;;435.90;2355.20;;;;;;4880711;29;20033;-78
2021/09/30 14:05:07;;;;;;;26.50;17.35;;;435.80;2355.20;;;;;;4889419;29;20025;-78
2021/09/30 14:07:35;;;;;;;21.27;15.18;;;435.90;2355.20;;;;;;4871557;29;20079;-79
2021/09/30 14:10:05;;;;;;;22.67;14.50;;;435.90;2355.20;;;;;;4870796;29;20033;-78
2021/09/30 14:12:31;;;;;;;28.90;13.82;;;435.90;2355.20;;;;;;4868122;29;20040;-78
2021/09/30 14:14:58;;;;;;;16.73;11.45;;;435.90;2355.20;;;;;;4871740;29;20043;-80
2021/09/30 14:17:23;;;;;;;18.90;11.98;;;435.80;2355.20;;;;;;4889490;29;20533;-80
2021/09/30 14:19:49;;;;;;;19.17;13.27;;;435.90;2355.20;;;;;;4872622;29;20040;-79
2021/09/30 14:22:15;;;;;;;23.50;15.23;;;435.90;2355.20;;;;;;4864378;29;20037;-78
2021/09/30 14:24:41;;;;;;;24.00;14.50;;;435.90;2355.20;;;;;;4861410;29;20029;-80
2021/09/30 14:27:07;;;;;;;27.88;14.00;;;435.80;2355.20;;;;;;4867770;29;20032;-79
2021/09/30 14:29:33;;;;;;;35.35;19.35;;;435.80;2355.20;;;;;;4877285;29;20054;-79
2021/09/30 14:31:59;;;;;;;28.42;17.88;;;435.80;2355.20;;;;;;4861381;29;20021;-78
2021/09/30 14:34:26;;;;;;;26.60;15.93;;;435.80;2355.20;;;;;;4858183;29;20064;-78
2021/09/30 14:36:52;;;;;;;32.22;19.27;;;435.70;2355.20;;;;;;4867572;29;20028;-78
2021/09/30 14:39:17;;;;;;;31.05;16.95;;;435.70;2355.20;;;;;;4861801;29;20037;-78
2021/09/30 14:41:43;;;;;;;37.60;21.42;;;435.70;2355.20;;;;;;4878082;29;20033;-77
2021/09/30 14:44:09;;;;;;;36.08;22.00;;;435.70;2355.20;;;;;;4861551;29;20045;-78
2021/09/30 14:46:35;;;;;;;34.65;22.90;;;435.70;2355.20;;;;;;4861639;29;20388;-77
2021/09/30 14:49:01;;;;;;;36.17;23.50;;;435.70;2355.20;;;;;;4878217;29;20101;-77
2021/09/30 14:51:27;;;;;;;30.80;19.75;;;435.70;2355.20;;;;;;4878587;29;20462;-77
2021/09/30 14:53:53;;;;;;;28.52;16.42;;;435.80;2355.20;;;;;;4878198;29;20418;-78
2021/09/30 14:56:19;;;;;;;23.27;15.68;;;435.80;2355.20;;;;;;4861477;29;20039;-78
2021/09/30 14:58:44;;;;;;;24.20;14.75;;;435.80;2355.20;;;;;;4877801;29;20037;-77
2021/09/30 15:01:11;;;;;;;23.15;15.82;;;435.70;2355.20;;;;;;4860033;29;20033;-78
2021/09/30 15:03:36;;;;;;;33.42;17.98;;;435.70;2355.20;;;;;;4870676;29;20017;-77
2021/09/30 15:06:03;;;;;;;38.17;21.98;;;435.70;2355.20;;;;;;4878023;29;20021;-77
2021/09/30 15:08:29;;;;;;;30.38;18.92;;;435.60;2355.20;;;;;;4861065;29;20029;-78
2021/09/30 15:10:55;;;;;;;30.98;18.42;;;435.70;2355.20;;;;;;4877868;29;20493;-77
2021/09/30 15:13:20;;;;;;;24.95;16.90;;;435.80;2355.20;;;;;;4877705;29;20067;-77
2021/09/30 15:15:46;;;;;;;26.30;16.20;;;435.70;2355.20;;;;;;4877912;29;20025;-77
2021/09/30 15:18:26;;;;;;;28.23;21.40;;;435.60;2355.20;;;;;;4877988;29;20025;-77
2021/09/30 15:23:36;;;;;;;41.45;28.73;;;435.70;2355.20;;;;;;4876876;29;20073;-78
2021/09/30 15:26:02;;;;;;;50.58;35.65;;;435.80;2355.20;;;;;;4861448;29;20025;-77